sensor_id;sensor_type;location;lat;lon;timestamp;pressure;altitude;pressure_sealevel;temperature;humidity
21730;BME280;11027;51.030;13.812;2022-10-16T00:01:35;99971.69;;;15.65;94.95
21730;BME280;11027;51.030;13.812;2022-10-16T00:04:00;99981.81;;;15.65;95.31
21730;BME280;11027;51.030;13.812;2022-10-16T00:06:26;99982.03;;;15.63;95.54
21730;BME280;11027;51.030;13.812;2022-10-16T00:08:51;99972.13;;;15.62;95.79
21730;BME280;11027;51.030;13.812;2022-10-16T00:13:42;99985.22;;;15.60;96.01
21730;BME280;11027;51.030;13.812;2022-10-16T00:16:08;99992.41;;;15.61;96.44
21730;BME280;11027;51.030;13.812;2022-10-16T00:18:34;99989.88;;;15.59;96.49
21730;BME280;11027;51.030;13.812;2022-10-16T00:21:03;99994.50;;;15.59;96.61
21730;BME280;11027;51.030;13.812;2022-10-16T00:23:28;99992.84;;;15.58;96.78
21730;BME280;11027;51.030;13.812;2022-10-16T00:25:54;100000.00;;;15.59;96.74
21730;BME280;11027;51.030;13.812;2022-10-16T00:28:20;99987.97;;;15.60;96.65
21730;BME280;11027;51.030;13.812;2022-10-16T00:30:46;99998.97;;;15.60;96.42
21730;BME280;11027;51.030;13.812;2022-10-16T00:33:11;99995.13;;;15.61;96.08
21730;BME280;11027;51.030;13.812;2022-10-16T00:35:36;99993.03;;;15.63;96.28
21730;BME280;11027;51.030;13.812;2022-10-16T00:38:01;99993.03;;;15.63;96.07
21730;BME280;11027;51.030;13.812;2022-10-16T00:40:26;99988.59;;;15.62;95.89
21730;BME280;11027;51.030;13.812;2022-10-16T00:42:53;99988.59;;;15.62;96.01
21730;BME280;11027;51.030;13.812;2022-10-16T00:45:18;99994.09;;;15.62;95.79
21730;BME280;11027;51.030;13.812;2022-10-16T00:47:43;99999.81;;;15.60;96.09
21730;BME280;11027;51.030;13.812;2022-10-16T00:50:12;100003.38;;;15.61;96.12
21730;BME280;11027;51.030;13.812;2022-10-16T00:52:39;100002.75;;;15.59;96.13
21730;BME280;11027;51.030;13.812;2022-10-16T00:55:06;100008.25;;;15.59;96.17
21730;BME280;11027;51.030;13.812;2022-10-16T00:57:33;100008.25;;;15.59;96.17
21730;BME280;11027;51.030;13.812;2022-10-16T00:59:58;100012.69;;;15.60;96.26
21730;BME280;11027;51.030;13.812;2022-10-16T01:02:23;100013.75;;;15.59;96.28
21730;BME280;11027;51.030;13.812;2022-10-16T01:04:50;100016.47;;;15.59;96.26
21730;BME280;11027;51.030;13.812;2022-10-16T01:07:18;100011.00;;;15.59;95.97
21730;BME280;11027;51.030;13.812;2022-10-16T01:12:48;100015.44;;;15.60;96.33
21730;BME280;11027;51.030;13.812;2022-10-16T01:17:51;100015.41;;;15.67;96.33
21730;BME280;11027;51.030;13.812;2022-10-16T01:20:20;100016.03;;;15.69;96.14
21730;BME280;11027;51.030;13.812;2022-10-16T01:25:45;100016.47;;;15.72;95.94
21730;BME280;11027;51.030;13.812;2022-10-16T01:28:14;100013.50;;;15.74;96.01
21730;BME280;11027;51.030;13.812;2022-10-16T01:30:40;100020.47;;;15.76;96.17
21730;BME280;11027;51.030;13.812;2022-10-16T01:33:14;100017.28;;;15.79;96.19
21730;BME280;11027;51.030;13.812;2022-10-16T01:35:42;100022.78;;;15.79;96.37
21730;BME280;11027;51.030;13.812;2022-10-16T01:40:36;100028.47;;;15.85;96.51
21730;BME280;11027;51.030;13.812;2022-10-16T01:43:04;100032.91;;;15.86;96.48
21730;BME280;11027;51.030;13.812;2022-10-16T01:45:31;100036.28;;;15.88;96.39
21730;BME280;11027;51.030;13.812;2022-10-16T01:47:57;100037.94;;;15.89;96.45
21730;BME280;11027;51.030;13.812;2022-10-16T01:50:23;100031.16;;;15.91;96.75
21730;BME280;11027;51.030;13.812;2022-10-16T01:52:49;100032.03;;;15.92;96.74
21730;BME280;11027;51.030;13.812;2022-10-16T01:55:24;100026.53;;;15.92;96.63
21730;BME280;11027;51.030;13.812;2022-10-16T01:57:51;100033.47;;;15.94;96.46
21730;BME280;11027;51.030;13.812;2022-10-16T02:00:18;100024.41;;;15.94;96.41
21730;BME280;11027;51.030;13.812;2022-10-16T02:02:45;100022.72;;;15.93;96.78
21730;BME280;11027;51.030;13.812;2022-10-16T02:05:32;100029.91;;;15.94;96.64
21730;BME280;11027;51.030;13.812;2022-10-16T02:07:59;100037.06;;;15.95;96.51
21730;BME280;11027;51.030;13.812;2022-10-16T02:10:24;100042.56;;;15.95;96.54
21730;BME280;11027;51.030;13.812;2022-10-16T02:12:52;100044.25;;;15.96;96.83
21730;BME280;11027;51.030;13.812;2022-10-16T02:15:20;100038.16;;;15.94;96.55
21730;BME280;11027;51.030;13.812;2022-10-16T02:17:45;100044.69;;;15.93;96.68
21730;BME280;11027;51.030;13.812;2022-10-16T02:20:10;100043.00;;;15.92;96.71
21730;BME280;11027;51.030;13.812;2022-10-16T02:22:38;100044.06;;;15.91;96.79
21730;BME280;11027;51.030;13.812;2022-10-16T02:25:11;100050.63;;;15.90;96.67
21730;BME280;11027;51.030;13.812;2022-10-16T02:30:27;100042.59;;;15.88;96.79
21730;BME280;11027;51.030;13.812;2022-10-16T02:32:55;100040.69;;;15.89;96.65
21730;BME280;11027;51.030;13.812;2022-10-16T02:35:22;100039.66;;;15.90;96.87
21730;BME280;11027;51.030;13.812;2022-10-16T02:37:48;100035.81;;;15.91;97.03
21730;BME280;11027;51.030;13.812;2022-10-16T02:40:14;100037.72;;;15.90;97.13
21730;BME280;11027;51.030;13.812;2022-10-16T02:42:39;100039.19;;;15.93;97.00
21730;BME280;11027;51.030;13.812;2022-10-16T02:45:05;100039.19;;;15.93;96.86
21730;BME280;11027;51.030;13.812;2022-10-16T02:47:31;100044.25;;;15.96;96.80
21730;BME280;11027;51.030;13.812;2022-10-16T02:49:56;100037.69;;;15.97;97.06
21730;BME280;11027;51.030;13.812;2022-10-16T02:52:21;100033.28;;;15.96;96.64
21730;BME280;11027;51.030;13.812;2022-10-16T02:54:47;100043.59;;;16.00;96.88
21730;BME280;11027;51.030;13.812;2022-10-16T02:57:12;100036.81;;;16.03;96.56
21730;BME280;11027;51.030;13.812;2022-10-16T02:59:37;100033.63;;;16.06;96.38
21730;BME280;11027;51.030;13.812;2022-10-16T03:02:02;100046.09;;;16.09;96.20
21730;BME280;11027;51.030;13.812;2022-10-16T03:04:28;100040.59;;;16.09;96.09
21730;BME280;11027;51.030;13.812;2022-10-16T03:06:53;100034.47;;;16.07;95.91
21730;BME280;11027;51.030;13.812;2022-10-16T03:09:18;100025.59;;;16.05;95.81
21730;BME280;11027;51.030;13.812;2022-10-16T03:11:43;100024.97;;;16.03;95.65
21730;BME280;11027;51.030;13.812;2022-10-16T03:14:09;100029.03;;;16.00;95.79
21730;BME280;11027;51.030;13.812;2022-10-16T03:16:34;100035.78;;;15.97;95.80
21730;BME280;11027;51.030;13.812;2022-10-16T03:18:59;100034.09;;;15.96;95.97
21730;BME280;11027;51.030;13.812;2022-10-16T03:21:24;100034.94;;;15.97;95.73
21730;BME280;11027;51.030;13.812;2022-10-16T03:23:49;100042.56;;;15.95;95.56
21730;BME280;11027;51.030;13.812;2022-10-16T03:26:15;100055.25;;;15.96;95.76
21730;BME280;11027;51.030;13.812;2022-10-16T03:28:40;100055.25;;;15.96;95.62
21730;BME280;11027;51.030;13.812;2022-10-16T03:31:05;100059.03;;;15.95;95.54
21730;BME280;11027;51.030;13.812;2022-10-16T03:33:30;100052.94;;;15.93;95.94
21730;BME280;11027;51.030;13.812;2022-10-16T03:35:55;100054.00;;;15.92;95.88
21730;BME280;11027;51.030;13.812;2022-10-16T03:38:21;100055.66;;;15.93;95.95
21730;BME280;11027;51.030;13.812;2022-10-16T03:40:46;100057.38;;;15.94;95.80
21730;BME280;11027;51.030;13.812;2022-10-16T03:43:11;100061.16;;;15.93;95.85
21730;BME280;11027;51.030;13.812;2022-10-16T03:45:36;100050.19;;;15.93;95.78
21730;BME280;11027;51.030;13.812;2022-10-16T03:48:02;100046.81;;;15.91;95.83
21730;BME280;11027;51.030;13.812;2022-10-16T03:50:28;100056.97;;;15.90;95.86
21730;BME280;11027;51.030;13.812;2022-10-16T03:52:53;100067.94;;;15.90;96.04
21730;BME280;11027;51.030;13.812;2022-10-16T03:55:18;100072.59;;;15.90;96.11
21730;BME280;11027;51.030;13.812;2022-10-16T03:57:43;100070.91;;;15.89;96.27
21730;BME280;11027;51.030;13.812;2022-10-16T04:00:09;100068.38;;;15.87;96.45
21730;BME280;11027;51.030;13.812;2022-10-16T04:02:34;100075.16;;;15.85;96.04
21730;BME280;11027;51.030;13.812;2022-10-16T04:04:59;100079.81;;;15.84;96.41
21730;BME280;11027;51.030;13.812;2022-10-16T04:07:25;100076.22;;;15.84;96.39
21730;BME280;11027;51.030;13.812;2022-10-16T04:09:50;100073.47;;;15.84;96.22
21730;BME280;11027;51.030;13.812;2022-10-16T04:12:17;100077.47;;;15.81;96.43
21730;BME280;11027;51.030;13.812;2022-10-16T04:14:42;100075.59;;;15.82;96.98
21730;BME280;11027;51.030;13.812;2022-10-16T04:17:07;100083.59;;;15.83;96.88
21730;BME280;11027;51.030;13.812;2022-10-16T04:19:32;100084.47;;;15.84;96.90
21730;BME280;11027;51.030;13.812;2022-10-16T04:21:57;100096.09;;;15.86;96.61
21730;BME280;11027;51.030;13.812;2022-10-16T04:24:22;100096.09;;;15.86;96.90
21730;BME280;11027;51.030;13.812;2022-10-16T04:26:48;100104.31;;;15.86;96.94
21730;BME280;11027;51.030;13.812;2022-10-16T04:29:13;100099.66;;;15.86;97.09
21730;BME280;11027;51.030;13.812;2022-10-16T04:31:38;100093.34;;;15.86;96.91
21730;BME280;11027;51.030;13.812;2022-10-16T04:34:03;100089.72;;;15.85;96.91
21730;BME280;11027;51.030;13.812;2022-10-16T04:36:28;100078.97;;;15.84;96.97
21730;BME280;11027;51.030;13.812;2022-10-16T04:38:53;100087.41;;;15.82;97.02
21730;BME280;11027;51.030;13.812;2022-10-16T04:41:19;100099.25;;;15.83;97.12
21730;BME280;11027;51.030;13.812;2022-10-16T04:43:44;100102.00;;;15.83;97.10
21730;BME280;11027;51.030;13.812;2022-10-16T04:46:09;100102.19;;;15.81;97.21
21730;BME280;11027;51.030;13.812;2022-10-16T04:48:35;100099.47;;;15.81;97.21
21730;BME280;11027;51.030;13.812;2022-10-16T04:51:00;100104.31;;;15.79;97.28
21730;BME280;11027;51.030;13.812;2022-10-16T04:53:25;100108.97;;;15.78;97.22
21730;BME280;11027;51.030;13.812;2022-10-16T04:55:50;100109.19;;;15.77;97.41
21730;BME280;11027;51.030;13.812;2022-10-16T04:58:16;100110.06;;;15.77;97.19
21730;BME280;11027;51.030;13.812;2022-10-16T05:00:41;100105.19;;;15.79;97.43
21730;BME280;11027;51.030;13.812;2022-10-16T05:03:06;100099.25;;;15.83;96.94
21730;BME280;11027;51.030;13.812;2022-10-16T05:05:33;100091.47;;;15.79;97.03
21730;BME280;11027;51.030;13.812;2022-10-16T05:07:58;100101.81;;;15.77;97.16
21730;BME280;11027;51.030;13.812;2022-10-16T05:10:23;100100.13;;;15.76;97.40
21730;BME280;11027;51.030;13.812;2022-10-16T05:12:49;100096.31;;;15.77;97.08
21730;BME280;11027;51.030;13.812;2022-10-16T05:15:14;100104.56;;;15.77;97.15
21730;BME280;11027;51.030;13.812;2022-10-16T05:17:40;100111.94;;;15.77;97.21
21730;BME280;11027;51.030;13.812;2022-10-16T05:20:05;100108.16;;;15.78;97.13
21730;BME280;11027;51.030;13.812;2022-10-16T05:22:30;100100.13;;;15.76;97.21
21730;BME280;11027;51.030;13.812;2022-10-16T05:24:55;100110.06;;;15.77;97.45
21730;BME280;11027;51.030;13.812;2022-10-16T05:27:21;100105.59;;;15.76;97.40
21730;BME280;11027;51.030;13.812;2022-10-16T05:29:46;100119.97;;;15.78;97.45
21730;BME280;11027;51.030;13.812;2022-10-16T05:32:12;100115.31;;;15.79;97.51
21730;BME280;11027;51.030;13.812;2022-10-16T05:34:37;100108.97;;;15.78;97.37
21730;BME280;11027;51.030;13.812;2022-10-16T05:37:02;100116.19;;;15.79;97.36
21730;BME280;11027;51.030;13.812;2022-10-16T05:39:27;100117.84;;;15.80;97.17
21730;BME280;11027;51.030;13.812;2022-10-16T05:41:52;100126.72;;;15.83;97.01
21730;BME280;11027;51.030;13.812;2022-10-16T05:44:17;100126.09;;;15.80;97.29
21730;BME280;11027;51.030;13.812;2022-10-16T05:46:43;100125.03;;;15.82;97.15
21730;BME280;11027;51.030;13.812;2022-10-16T05:49:08;100121.22;;;15.83;97.17
21730;BME280;11027;51.030;13.812;2022-10-16T05:51:33;100134.94;;;15.83;97.65
21730;BME280;11027;51.030;13.812;2022-10-16T05:53:58;100132.22;;;15.83;97.36
21730;BME280;11027;51.030;13.812;2022-10-16T05:56:23;100146.56;;;15.85;97.64
21730;BME280;11027;51.030;13.812;2022-10-16T05:58:48;100143.63;;;15.86;97.39
21730;BME280;11027;51.030;13.812;2022-10-16T06:01:15;100158.81;;;15.89;97.23
21730;BME280;11027;51.030;13.812;2022-10-16T06:03:41;100162.19;;;15.91;97.56
21730;BME280;11027;51.030;13.812;2022-10-16T06:06:13;100166.41;;;15.93;97.29
21730;BME280;11027;51.030;13.812;2022-10-16T06:08:39;100156.28;;;15.94;97.35
21730;BME280;11027;51.030;13.812;2022-10-16T06:11:06;100163.44;;;15.95;97.33
21730;BME280;11027;51.030;13.812;2022-10-16T06:13:31;100157.94;;;15.95;97.61
21730;BME280;11027;51.030;13.812;2022-10-16T06:15:58;100158.78;;;15.95;97.78
21730;BME280;11027;51.030;13.812;2022-10-16T06:18:23;100163.44;;;15.95;97.67
21730;BME280;11027;51.030;13.812;2022-10-16T06:20:49;100168.53;;;15.98;97.87
21730;BME280;11027;51.030;13.812;2022-10-16T06:23:14;100180.78;;;16.02;98.11
21730;BME280;11027;51.030;13.812;2022-10-16T06:25:39;100182.03;;;16.06;97.67
21730;BME280;11027;51.030;13.812;2022-10-16T06:28:04;100177.31;;;16.13;97.85
21730;BME280;11027;51.030;13.812;2022-10-16T06:30:29;100185.16;;;16.16;97.57
21730;BME280;11027;51.030;13.812;2022-10-16T06:32:54;100192.94;;;16.19;97.55
21730;BME280;11027;51.030;13.812;2022-10-16T06:35:20;100189.16;;;16.20;97.42
21730;BME280;11027;51.030;13.812;2022-10-16T06:37:45;100187.03;;;16.23;97.30
21730;BME280;11027;51.030;13.812;2022-10-16T06:40:10;100184.47;;;16.28;97.04
21730;BME280;11027;51.030;13.812;2022-10-16T06:42:35;100191.22;;;16.32;97.22
21730;BME280;11027;51.030;13.812;2022-10-16T06:45:00;100199.66;;;16.37;96.79
21730;BME280;11027;51.030;13.812;2022-10-16T06:47:26;100197.50;;;16.46;96.50
21730;BME280;11027;51.030;13.812;2022-10-16T06:49:52;100194.75;;;16.52;96.56
21730;BME280;11027;51.030;13.812;2022-10-16T06:52:17;100207.38;;;16.60;95.93
21730;BME280;11027;51.030;13.812;2022-10-16T06:54:42;100204.59;;;16.67;95.86
21730;BME280;11027;51.030;13.812;2022-10-16T06:57:07;100212.19;;;16.71;95.48
21730;BME280;11027;51.030;13.812;2022-10-16T06:59:32;100212.59;;;16.75;95.23
21730;BME280;11027;51.030;13.812;2022-10-16T07:01:58;100219.78;;;16.76;95.00
21730;BME280;11027;51.030;13.812;2022-10-16T07:04:23;100222.53;;;16.76;94.72
21730;BME280;11027;51.030;13.812;2022-10-16T07:06:48;100227.41;;;16.74;94.85
21730;BME280;11027;51.030;13.812;2022-10-16T07:09:13;100238.41;;;16.74;94.74
21730;BME280;11027;51.030;13.812;2022-10-16T07:11:39;100234.81;;;16.73;94.69
21730;BME280;11027;51.030;13.812;2022-10-16T07:14:05;100233.78;;;16.74;94.88
21730;BME280;11027;51.030;13.812;2022-10-16T07:16:33;100248.16;;;16.76;95.02
21730;BME280;11027;51.030;13.812;2022-10-16T07:19:00;100223.16;;;16.78;94.72
21730;BME280;11027;51.030;13.812;2022-10-16T07:21:26;100230.53;;;16.84;95.13
21730;BME280;11027;51.030;13.812;2022-10-16T07:23:54;100234.53;;;16.88;94.80
21730;BME280;11027;51.030;13.812;2022-10-16T07:26:20;100241.28;;;16.92;94.80
21730;BME280;11027;51.030;13.812;2022-10-16T07:28:45;100244.66;;;16.94;94.48
21730;BME280;11027;51.030;13.812;2022-10-16T07:31:12;100264.56;;;16.96;94.21
21730;BME280;11027;51.030;13.812;2022-10-16T07:33:38;100265.41;;;16.97;94.21
21730;BME280;11027;51.030;13.812;2022-10-16T07:36:04;100272.19;;;16.94;94.29
21730;BME280;11027;51.030;13.812;2022-10-16T07:38:29;100281.53;;;16.93;94.27
21730;BME280;11027;51.030;13.812;2022-10-16T07:40:55;100287.03;;;16.93;94.38
21730;BME280;11027;51.030;13.812;2022-10-16T07:43:21;100284.91;;;16.95;94.48
21730;BME280;11027;51.030;13.812;2022-10-16T07:45:47;100296.31;;;16.99;94.62
21730;BME280;11027;51.030;13.812;2022-10-16T07:48:13;100289.53;;;17.02;94.47
21730;BME280;11027;51.030;13.812;2022-10-16T07:50:38;100292.47;;;17.07;94.51
21730;BME280;11027;51.030;13.812;2022-10-16T07:53:03;100287.34;;;17.10;94.49
21730;BME280;11027;51.030;13.812;2022-10-16T07:55:28;100293.25;;;17.14;94.54
21730;BME280;11027;51.030;13.812;2022-10-16T07:57:54;100297.25;;;17.18;94.33
21730;BME280;11027;51.030;13.812;2022-10-16T08:00:19;100299.13;;;17.24;94.29
21730;BME280;11027;51.030;13.812;2022-10-16T08:02:44;100298.22;;;17.30;94.30
21730;BME280;11027;51.030;13.812;2022-10-16T08:05:09;100307.94;;;17.39;94.07
21730;BME280;11027;51.030;13.812;2022-10-16T08:07:35;100300.69;;;17.45;93.40
21730;BME280;11027;51.030;13.812;2022-10-16T08:10:00;100295.56;;;17.49;93.17
21730;BME280;11027;51.030;13.812;2022-10-16T08:12:25;100293.84;;;17.54;92.91
21730;BME280;11027;51.030;13.812;2022-10-16T08:14:51;100279.38;;;17.59;92.41
21730;BME280;11027;51.030;13.812;2022-10-16T08:17:16;100275.09;;;17.63;92.61
21730;BME280;11027;51.030;13.812;2022-10-16T08:19:45;100270.00;;;17.67;92.41
21730;BME280;11027;51.030;13.812;2022-10-16T08:22:10;100284.59;;;17.67;91.93
21730;BME280;11027;51.030;13.812;2022-10-16T08:24:35;100296.25;;;17.69;91.90
21730;BME280;11027;51.030;13.812;2022-10-16T08:27:02;100292.44;;;17.70;92.01
21730;BME280;11027;51.030;13.812;2022-10-16T08:29:27;100288.38;;;17.73;92.05
21730;BME280;11027;51.030;13.812;2022-10-16T08:31:52;100283.28;;;17.76;91.72
21730;BME280;11027;51.030;13.812;2022-10-16T08:34:17;100290.03;;;17.80;91.61
21730;BME280;11027;51.030;13.812;2022-10-16T08:36:43;100290.22;;;17.86;91.32
21730;BME280;11027;51.030;13.812;2022-10-16T08:39:08;100288.47;;;17.91;91.18
21730;BME280;11027;51.030;13.812;2022-10-16T08:41:48;100293.94;;;17.98;91.14
21730;BME280;11027;51.030;13.812;2022-10-16T08:44:25;100301.91;;;18.06;90.68
21730;BME280;11027;51.030;13.812;2022-10-16T08:49:36;100295.03;;;18.15;89.81
21730;BME280;11027;51.030;13.812;2022-10-16T08:52:02;100300.09;;;18.18;89.49
21730;BME280;11027;51.030;13.812;2022-10-16T08:56:56;100293.50;;;18.19;88.90
21730;BME280;11027;51.030;13.812;2022-10-16T08:59:21;100309.41;;;18.17;88.95
21730;BME280;11027;51.030;13.812;2022-10-16T09:01:47;100301.84;;;18.13;89.16
21730;BME280;11027;51.030;13.812;2022-10-16T09:09:51;100291.78;;;18.00;89.61
21730;BME280;11027;51.030;13.812;2022-10-16T09:17:39;100284.44;;;17.94;90.11
21730;BME280;11027;51.030;13.812;2022-10-16T09:22:55;100286.72;;;17.97;90.62
21730;BME280;11027;51.030;13.812;2022-10-16T09:25:25;100298.53;;;18.04;90.74
21730;BME280;11027;51.030;13.812;2022-10-16T09:27:52;100298.84;;;18.14;90.49
21730;BME280;11027;51.030;13.812;2022-10-16T09:30:18;100298.34;;;18.24;90.28
21730;BME280;11027;51.030;13.812;2022-10-16T09:32:44;100305.00;;;18.35;89.79
21730;BME280;11027;51.030;13.812;2022-10-16T09:35:13;100308.28;;;18.44;89.48
21730;BME280;11027;51.030;13.812;2022-10-16T09:37:39;100304.41;;;18.51;88.99
21730;BME280;11027;51.030;13.812;2022-10-16T09:40:05;100312.38;;;18.59;88.82
21730;BME280;11027;51.030;13.812;2022-10-16T09:42:31;100319.88;;;18.71;88.53
21730;BME280;11027;51.030;13.812;2022-10-16T09:44:58;100320.22;;;18.81;87.95
21730;BME280;11027;51.030;13.812;2022-10-16T09:47:24;100311.13;;;18.92;87.60
21730;BME280;11027;51.030;13.812;2022-10-16T09:50:00;100311.91;;;18.99;87.30
21730;BME280;11027;51.030;13.812;2022-10-16T09:52:27;100318.19;;;19.07;86.73
21730;BME280;11027;51.030;13.812;2022-10-16T09:54:54;100318.56;;;19.10;86.43
21730;BME280;11027;51.030;13.812;2022-10-16T09:57:20;100307.75;;;19.09;86.21
21730;BME280;11027;51.030;13.812;2022-10-16T09:59:52;100319.16;;;19.12;85.84
21730;BME280;11027;51.030;13.812;2022-10-16T10:02:19;100308.66;;;19.21;85.83
21730;BME280;11027;51.030;13.812;2022-10-16T10:04:51;100315.75;;;19.29;85.47
21730;BME280;11027;51.030;13.812;2022-10-16T10:09:51;100323.63;;;19.44;84.87
21730;BME280;11027;51.030;13.812;2022-10-16T10:12:26;100333.34;;;19.46;84.63
21730;BME280;11027;51.030;13.812;2022-10-16T10:14:52;100334.19;;;19.47;84.57
21730;BME280;11027;51.030;13.812;2022-10-16T10:17:19;100327.81;;;19.46;84.56
21730;BME280;11027;51.030;13.812;2022-10-16T10:22:21;100338.66;;;19.48;84.68
21730;BME280;11027;51.030;13.812;2022-10-16T10:27:21;100341.69;;;19.58;83.90
21730;BME280;11027;51.030;13.812;2022-10-16T10:33:21;100341.94;;;19.68;82.79
21730;BME280;11027;51.030;13.812;2022-10-16T10:45:54;100343.13;;;20.03;81.00
21730;BME280;11027;51.030;13.812;2022-10-16T10:51:08;100357.81;;;20.27;79.91
21730;BME280;11027;51.030;13.812;2022-10-16T10:56:41;100358.31;;;20.59;78.85
21730;BME280;11027;51.030;13.812;2022-10-16T11:01:39;100356.09;;;20.85;77.83
21730;BME280;11027;51.030;13.812;2022-10-16T11:06:47;100350.63;;;21.02;77.01
21730;BME280;11027;51.030;13.812;2022-10-16T11:09:21;100361.84;;;21.07;76.50
21730;BME280;11027;51.030;13.812;2022-10-16T11:11:53;100351.59;;;21.07;75.88
21730;BME280;11027;51.030;13.812;2022-10-16T11:14:21;100351.22;;;21.04;74.02
21730;BME280;11027;51.030;13.812;2022-10-16T11:16:51;100350.63;;;21.02;70.70
21730;BME280;11027;51.030;13.812;2022-10-16T11:19:27;100349.91;;;20.94;70.05
21730;BME280;11027;51.030;13.812;2022-10-16T11:21:59;100348.25;;;20.93;69.67
21730;BME280;11027;51.030;13.812;2022-10-16T11:24:36;100358.50;;;20.93;70.06
21730;BME280;11027;51.030;13.812;2022-10-16T11:27:08;100358.59;;;20.98;69.88
21730;BME280;11027;51.030;13.812;2022-10-16T11:29:33;100353.53;;;21.07;68.71
21730;BME280;11027;51.030;13.812;2022-10-16T11:32:01;100360.47;;;21.21;68.20
21730;BME280;11027;51.030;13.812;2022-10-16T11:34:32;100360.66;;;21.31;67.60
21730;BME280;11027;51.030;13.812;2022-10-16T11:37:04;100344.13;;;21.36;66.65
21730;BME280;11027;51.030;13.812;2022-10-16T11:39:32;100349.78;;;21.42;66.54
21730;BME280;11027;51.030;13.812;2022-10-16T11:49:43;100355.19;;;21.48;66.16
21730;BME280;11027;51.030;13.812;2022-10-16T11:57:23;100355.19;;;21.48;66.45
21730;BME280;11027;51.030;13.812;2022-10-16T12:00:14;100360.38;;;21.73;66.32
21730;BME280;11027;51.030;13.812;2022-10-16T12:07:27;100367.50;;;22.03;63.35
21730;BME280;11027;51.030;13.812;2022-10-16T12:09:56;100357.44;;;21.97;64.30
21730;BME280;11027;51.030;13.812;2022-10-16T12:15:15;100361.66;;;22.00;64.43
21730;BME280;11027;51.030;13.812;2022-10-16T12:17:42;100366.19;;;22.23;62.99
21730;BME280;11027;51.030;13.812;2022-10-16T12:22:36;100366.84;;;22.47;60.90
21730;BME280;11027;51.030;13.812;2022-10-16T12:25:01;100370.22;;;22.49;61.00
21730;BME280;11027;51.030;13.812;2022-10-16T12:27:31;100364.00;;;22.42;61.01
21730;BME280;11027;51.030;13.812;2022-10-16T12:30:00;100362.50;;;22.34;60.68
21730;BME280;11027;51.030;13.812;2022-10-16T12:32:33;100362.19;;;22.30;60.74
21730;BME280;11027;51.030;13.812;2022-10-16T12:35:00;100370.03;;;22.22;61.57
21730;BME280;11027;51.030;13.812;2022-10-16T12:37:26;100371.03;;;22.15;61.48
21730;BME280;11027;51.030;13.812;2022-10-16T12:39:53;100376.53;;;22.10;61.74
21730;BME280;11027;51.030;13.812;2022-10-16T12:44:44;100365.84;;;22.02;62.42
21730;BME280;11027;51.030;13.812;2022-10-16T12:47:19;100385.84;;;22.04;62.52
21730;BME280;11027;51.030;13.812;2022-10-16T12:49:48;100385.34;;;22.07;62.24
21730;BME280;11027;51.030;13.812;2022-10-16T12:54:51;100384.31;;;22.13;62.10
21730;BME280;11027;51.030;13.812;2022-10-16T13:00:09;100392.22;;;22.22;60.78
21730;BME280;11027;51.030;13.812;2022-10-16T13:10:40;100385.59;;;22.56;60.26
21730;BME280;11027;51.030;13.812;2022-10-16T13:15:46;100394.81;;;22.40;60.64
21730;BME280;11027;51.030;13.812;2022-10-16T13:18:29;100391.53;;;22.26;60.62
21730;BME280;11027;51.030;13.812;2022-10-16T13:23:29;100379.53;;;22.09;61.41
21730;BME280;11027;51.030;13.812;2022-10-16T13:28:27;100390.56;;;22.04;62.03
21730;BME280;11027;51.030;13.812;2022-10-16T13:30:54;100389.03;;;22.13;62.17
21730;BME280;11027;51.030;13.812;2022-10-16T13:35:50;100388.78;;;22.14;62.22
21730;BME280;11027;51.030;13.812;2022-10-16T13:38:16;100390.63;;;22.60;62.03
21730;BME280;11027;51.030;13.812;2022-10-16T13:40:58;100383.19;;;22.82;61.10
21730;BME280;11027;51.030;13.812;2022-10-16T13:45:52;100386.53;;;22.45;61.34
21730;BME280;11027;51.030;13.812;2022-10-16T13:48:17;100387.28;;;22.24;61.73
21730;BME280;11027;51.030;13.812;2022-10-16T13:53:14;100388.59;;;21.87;62.57
21730;BME280;11027;51.030;13.812;2022-10-16T13:55:40;100383.13;;;21.75;63.17
21730;BME280;11027;51.030;13.812;2022-10-16T13:58:12;100391.25;;;21.65;63.43
21730;BME280;11027;51.030;13.812;2022-10-16T14:00:38;100393.34;;;21.58;64.07
21730;BME280;11027;51.030;13.812;2022-10-16T14:03:07;100394.41;;;21.57;64.49
21730;BME280;11027;51.030;13.812;2022-10-16T14:06:02;100397.78;;;21.59;65.21
21730;BME280;11027;51.030;13.812;2022-10-16T14:08:28;100400.06;;;21.62;65.62
21730;BME280;11027;51.030;13.812;2022-10-16T14:10:59;100409.47;;;21.61;65.89
21730;BME280;11027;51.030;13.812;2022-10-16T14:13:36;100409.97;;;21.58;66.20
21730;BME280;11027;51.030;13.812;2022-10-16T14:16:09;100410.47;;;21.55;66.72
21730;BME280;11027;51.030;13.812;2022-10-16T14:18:37;100414.81;;;21.51;67.19
21730;BME280;11027;51.030;13.812;2022-10-16T14:21:06;100424.72;;;21.47;67.73
21730;BME280;11027;51.030;13.812;2022-10-16T14:23:36;100421.34;;;21.45;68.16
21730;BME280;11027;51.030;13.812;2022-10-16T14:26:22;100419.75;;;21.49;68.58
21730;BME280;11027;51.030;13.812;2022-10-16T14:28:49;100419.28;;;21.52;68.72
21730;BME280;11027;51.030;13.812;2022-10-16T14:31:27;100416.50;;;21.52;68.87
21730;BME280;11027;51.030;13.812;2022-10-16T14:33:53;100415.31;;;21.48;69.42
21730;BME280;11027;51.030;13.812;2022-10-16T14:36:18;100417.97;;;21.43;69.53
21730;BME280;11027;51.030;13.812;2022-10-16T14:38:58;100420.13;;;21.41;70.12
21730;BME280;11027;51.030;13.812;2022-10-16T14:41:24;100413.38;;;21.36;70.43